createdAt,value
2023-05-10T00:00:54.576Z,247.00
2023-05-10T00:01:54.624Z,247.40
2023-05-10T00:02:54.688Z,247.42
2023-05-10T00:03:54.664Z,247.42
2023-05-10T00:04:54.682Z,247.52
2023-05-10T00:05:54.686Z,248.78
2023-05-10T00:06:54.738Z,248.98
2023-05-10T00:07:54.818Z,248.54
2023-05-10T00:08:54.794Z,247.81
2023-05-10T00:09:54.811Z,246.57
2023-05-10T00:10:54.946Z,247.39
2023-05-10T00:11:54.917Z,247.55
2023-05-10T00:12:55.014Z,245.76
2023-05-10T00:13:55.036Z,246.31
2023-05-10T00:14:55.043Z,246.99
2023-05-10T00:15:55.121Z,244.66
2023-05-10T00:16:55.315Z,244.08
2023-05-10T00:17:55.337Z,243.39
2023-05-10T00:18:55.296Z,243.67
2023-05-10T00:19:55.339Z,242.84
2023-05-10T00:20:55.360Z,244.05
2023-05-10T00:21:55.362Z,244.44
2023-05-10T00:22:55.428Z,244.84
2023-05-10T00:23:55.459Z,243.15
2023-05-10T00:24:55.511Z,243.65
2023-05-10T00:25:55.506Z,244.06
2023-05-10T00:26:55.562Z,244.15
2023-05-10T00:27:55.629Z,242.97
2023-05-10T00:28:55.612Z,241.29
2023-05-10T00:29:55.665Z,241.82
2023-05-10T00:30:55.627Z,241.21
2023-05-10T00:31:55.662Z,240.97
2023-05-10T00:32:55.639Z,240.98
2023-05-10T00:33:55.612Z,240.76
2023-05-10T00:34:55.646Z,241.17
2023-05-10T00:35:55.604Z,240.27
2023-05-10T00:36:55.664Z,239.11
2023-05-10T00:37:55.666Z,239.20
2023-05-10T00:38:55.645Z,239.21
2023-05-10T00:39:55.686Z,238.97
2023-05-10T00:40:55.695Z,238.80
2023-05-10T00:41:55.744Z,237.83
2023-05-10T00:42:55.882Z,237.68
2023-05-10T00:43:55.909Z,236.96
2023-05-10T00:44:55.888Z,236.47
2023-05-10T00:45:55.978Z,235.32
2023-05-10T00:46:55.989Z,233.89
2023-05-10T00:47:56.143Z,233.39
2023-05-10T00:48:56.092Z,232.24
2023-05-10T00:49:56.144Z,231.29
2023-05-10T00:50:56.158Z,232.22
2023-05-10T00:51:56.174Z,232.83
2023-05-10T00:52:56.224Z,230.99
2023-05-10T00:53:56.226Z,231.69
2023-05-10T00:54:56.276Z,232.20
2023-05-10T00:55:56.261Z,231.33
2023-05-10T00:56:56.810Z,232.44
2023-05-10T00:57:56.282Z,230.22
2023-05-10T00:58:56.282Z,228.90
2023-05-10T00:59:56.389Z,229.39
2023-05-10T01:00:56.465Z,230.72
2023-05-10T01:01:56.447Z,228.57
2023-05-10T01:02:56.580Z,226.43
2023-05-10T01:03:56.466Z,225.45
2023-05-10T01:04:56.586Z,224.01
2023-05-10T01:05:56.582Z,222.54
2023-05-10T01:06:56.664Z,222.22
2023-05-10T01:07:56.696Z,222.23
2023-05-10T01:08:56.714Z,220.51
2023-05-10T01:09:56.761Z,219.90
2023-05-10T01:10:56.690Z,220.36
2023-05-10T01:11:56.782Z,218.72
2023-05-10T01:12:56.920Z,218.85
2023-05-10T01:13:56.875Z,222.06
2023-05-10T01:14:56.956Z,222.78
2023-05-10T01:15:57.078Z,223.10
2023-05-10T01:16:57.070Z,223.45
2023-05-10T01:17:57.147Z,224.12
2023-05-10T01:18:57.166Z,223.22
2023-05-10T01:19:57.305Z,222.38
2023-05-10T01:20:57.362Z,219.19
2023-05-10T01:21:57.386Z,217.38
2023-05-10T01:22:57.443Z,219.24
2023-05-10T01:23:57.508Z,221.79
2023-05-10T01:24:57.551Z,222.28
2023-05-10T01:25:57.507Z,222.81
2023-05-10T01:26:57.546Z,223.74
2023-05-10T01:27:57.561Z,224.65
2023-05-10T01:28:57.550Z,222.46
2023-05-10T01:30:13.639Z,224.09
2023-05-10T01:30:58.589Z,224.15
2023-05-10T01:31:57.576Z,224.87
2023-05-10T01:32:57.596Z,227.21
2023-05-10T01:33:57.558Z,230.37
2023-05-10T01:34:57.545Z,232.50
2023-05-10T01:35:57.513Z,232.02
2023-05-10T01:36:57.493Z,231.87
2023-05-10T01:37:57.544Z,232.88
2023-05-10T01:38:57.536Z,233.74
2023-05-10T01:39:57.484Z,232.21
2023-05-10T01:40:57.502Z,230.40
2023-05-10T01:41:57.485Z,229.81
2023-05-10T01:42:57.509Z,228.05
2023-05-10T01:43:57.447Z,227.54
2023-05-10T01:44:57.468Z,226.74
2023-05-10T01:45:57.452Z,225.32
2023-05-10T01:46:57.670Z,226.72
2023-05-10T01:47:57.580Z,229.04
2023-05-10T01:48:57.461Z,229.88
2023-05-10T01:49:57.478Z,232.20
2023-05-10T01:50:57.428Z,239.96
2023-05-10T01:51:57.425Z,240.28
2023-05-10T01:52:57.411Z,236.04
2023-05-10T01:53:57.409Z,235.07
2023-05-10T01:54:57.401Z,234.28
2023-05-10T01:55:57.405Z,233.07
2023-05-10T01:56:57.350Z,232.95
2023-05-10T01:57:57.378Z,231.75
2023-05-10T01:58:57.350Z,229.92
2023-05-10T01:59:57.372Z,227.26
2023-05-10T02:00:57.454Z,226.31
2023-05-10T02:01:57.384Z,225.37
2023-05-10T02:02:57.538Z,225.35
2023-05-10T02:03:57.499Z,224.31
2023-05-10T02:04:57.472Z,222.46
2023-05-10T02:05:57.552Z,225.54
2023-05-10T02:06:57.519Z,227.43
2023-05-10T02:07:57.593Z,228.79
2023-05-10T02:08:57.589Z,228.71
2023-05-10T02:09:57.612Z,229.09
2023-05-10T02:10:57.648Z,230.93
2023-05-10T02:11:57.678Z,230.65
2023-05-10T02:12:57.733Z,231.52
2023-05-10T02:13:57.673Z,230.04
2023-05-10T02:14:57.707Z,231.14
2023-05-10T02:15:57.710Z,233.14
2023-05-10T02:16:57.757Z,228.04
2023-05-10T02:17:58.021Z,230.92
2023-05-10T02:18:57.779Z,235.21
2023-05-10T02:19:57.842Z,238.87
2023-05-10T02:20:57.859Z,233.62
2023-05-10T02:21:57.978Z,230.98
2023-05-10T02:22:57.973Z,226.70
2023-05-10T02:23:58.011Z,225.47
2023-05-10T02:24:58.060Z,224.30
2023-05-10T02:25:58.170Z,224.26
2023-05-10T02:26:58.208Z,228.40
2023-05-10T02:27:58.224Z,228.09
2023-05-10T02:28:58.255Z,230.83
2023-05-10T02:29:58.264Z,231.17
2023-05-10T02:30:58.319Z,233.91
2023-05-10T02:31:58.488Z,232.82
2023-05-10T02:32:58.475Z,232.56
2023-05-10T02:33:58.421Z,231.82
2023-05-10T02:34:58.502Z,231.80
2023-05-10T02:35:58.600Z,232.67
2023-05-10T02:36:58.587Z,228.95
2023-05-10T02:37:58.575Z,222.98
2023-05-10T02:38:58.573Z,223.13
2023-05-10T02:39:58.583Z,224.11
2023-05-10T02:40:58.634Z,222.79
2023-05-10T02:41:58.630Z,220.15
2023-05-10T02:42:58.638Z,219.38
2023-05-10T02:43:58.653Z,219.37
2023-05-10T02:44:58.665Z,219.71
2023-05-10T02:45:58.691Z,221.19
2023-05-10T02:46:58.666Z,223.81
2023-05-10T02:47:58.713Z,224.19
2023-05-10T02:48:58.676Z,228.16
2023-05-10T02:49:58.761Z,229.90
2023-05-10T02:50:58.725Z,231.74
2023-05-10T02:51:58.754Z,228.03
2023-05-10T02:52:58.782Z,223.28
2023-05-10T02:53:58.876Z,221.91
2023-05-10T02:54:58.961Z,226.20
2023-05-10T02:55:58.976Z,227.12
2023-05-10T02:56:59.005Z,227.82
2023-05-10T02:57:58.957Z,228.22
2023-05-10T02:58:59.058Z,228.35
2023-05-10T02:59:59.062Z,228.68
2023-05-10T03:00:59.087Z,227.54
2023-05-10T03:01:59.095Z,226.08
2023-05-10T03:02:59.194Z,224.40
2023-05-10T03:03:59.095Z,222.67
2023-05-10T03:04:59.426Z,221.49
2023-05-10T03:05:59.117Z,220.20
2023-05-10T03:06:59.115Z,220.57
2023-05-10T03:07:59.143Z,221.13
2023-05-10T03:08:59.232Z,221.79
2023-05-10T03:09:59.339Z,221.66
2023-05-10T03:10:59.353Z,220.67
2023-05-10T03:11:59.455Z,220.20
2023-05-10T03:12:59.468Z,222.34
2023-05-10T03:13:59.469Z,223.01
2023-05-10T03:14:59.555Z,222.87
2023-05-10T03:15:59.584Z,221.73
2023-05-10T03:16:59.550Z,219.08
2023-05-10T03:17:59.658Z,218.35
2023-05-10T03:18:59.608Z,218.66
2023-05-10T03:19:59.683Z,220.45
2023-05-10T03:20:59.725Z,219.40
2023-05-10T03:21:59.800Z,220.60
2023-05-10T03:22:59.846Z,225.68
2023-05-10T03:23:59.944Z,227.46
2023-05-10T03:24:59.956Z,228.28
2023-05-10T03:26:00.015Z,227.31
2023-05-10T03:27:00.029Z,226.76
2023-05-10T03:28:00.054Z,225.61
2023-05-10T03:29:00.124Z,230.54
2023-05-10T03:30:00.265Z,233.95
2023-05-10T03:31:00.227Z,233.87
2023-05-10T03:32:00.261Z,238.42
2023-05-10T03:33:00.352Z,242.46
2023-05-10T03:34:00.336Z,246.30
2023-05-10T03:35:00.337Z,247.01
2023-05-10T03:36:00.408Z,248.64
2023-05-10T03:37:00.394Z,249.93
2023-05-10T03:38:00.415Z,249.81
2023-05-10T03:39:00.415Z,250.00
2023-05-10T03:40:00.454Z,249.27
2023-05-10T03:41:00.439Z,246.88
2023-05-10T03:42:00.459Z,244.46
2023-05-10T03:43:00.461Z,240.51
2023-05-10T03:44:00.459Z,237.72
2023-05-10T03:45:00.519Z,233.79
2023-05-10T03:46:00.524Z,231.29
2023-05-10T03:47:00.727Z,228.09
2023-05-10T03:48:00.714Z,231.78
2023-05-10T03:49:00.806Z,229.29
2023-05-10T03:50:00.748Z,229.68
2023-05-10T03:51:00.804Z,231.80
2023-05-10T03:52:00.859Z,234.29
2023-05-10T03:53:00.871Z,236.44
2023-05-10T03:54:00.823Z,237.56
2023-05-10T03:55:00.884Z,238.11
2023-05-10T03:56:00.833Z,237.89
2023-05-10T03:57:00.855Z,238.07
2023-05-10T03:58:00.999Z,238.44
2023-05-10T03:59:00.909Z,237.55
2023-05-10T04:00:00.995Z,235.46
2023-05-10T04:01:00.989Z,233.79
2023-05-10T04:02:01.064Z,232.78
2023-05-10T04:03:01.087Z,230.66
2023-05-10T04:04:01.144Z,226.77
2023-05-10T04:05:01.157Z,225.45
2023-05-10T04:06:01.262Z,225.78
2023-05-10T04:07:01.237Z,226.44
2023-05-10T04:08:01.276Z,225.90
2023-05-10T04:09:01.290Z,224.98
2023-05-10T04:10:01.243Z,225.18
2023-05-10T04:11:01.292Z,227.09
2023-05-10T04:12:01.366Z,226.18
2023-05-10T04:13:01.489Z,225.59
2023-05-10T04:14:01.528Z,223.84
2023-05-10T04:15:01.587Z,221.35
2023-05-10T04:16:01.594Z,220.28
2023-05-10T04:17:02.250Z,218.91
2023-05-10T04:18:01.872Z,219.17
2023-05-10T04:19:01.836Z,220.01
2023-05-10T04:20:01.878Z,226.01
2023-05-10T04:21:01.933Z,223.67
2023-05-10T04:22:01.996Z,217.18
2023-05-10T04:23:02.054Z,218.22
2023-05-10T04:24:02.126Z,218.82
2023-05-10T04:25:02.125Z,220.63
2023-05-10T04:26:02.175Z,217.38
2023-05-10T04:27:02.232Z,216.11
2023-05-10T04:28:02.336Z,219.73
2023-05-10T04:29:02.351Z,220.22
2023-05-10T04:30:02.415Z,221.31
2023-05-10T04:31:02.522Z,219.67
2023-05-10T04:32:02.570Z,211.77
2023-05-10T04:33:02.760Z,212.99
2023-05-10T04:34:02.707Z,213.18
2023-05-10T04:35:02.796Z,210.60
2023-05-10T04:36:02.824Z,209.53
2023-05-10T04:37:02.910Z,206.08
2023-05-10T04:38:02.911Z,206.58
2023-05-10T04:39:02.961Z,208.25
2023-05-10T04:40:03.050Z,208.80
2023-05-10T04:41:03.086Z,210.05
2023-05-10T04:42:03.150Z,206.78
2023-05-10T04:43:03.198Z,205.88
2023-05-10T04:44:03.267Z,203.66
2023-05-10T04:45:03.265Z,203.88
2023-05-10T04:46:03.415Z,204.01
2023-05-10T04:47:03.327Z,202.04
2023-05-10T04:48:03.434Z,205.12
2023-05-10T04:49:03.481Z,203.58
2023-05-10T04:50:03.518Z,204.68
2023-05-10T04:51:03.632Z,207.87
2023-05-10T04:52:03.642Z,213.72
2023-05-10T04:53:03.739Z,217.72
2023-05-10T04:54:06.645Z,220.54
2023-05-10T04:55:03.748Z,221.44
2023-05-10T04:56:03.732Z,217.67
2023-05-10T04:57:03.749Z,218.39
2023-05-10T04:58:03.719Z,219.96
2023-05-10T04:59:03.712Z,223.55
2023-05-10T05:00:03.719Z,229.25
2023-05-10T05:02:31.442Z,25.00
2023-05-10T05:03:23.777Z,25.00
2023-05-10T05:04:23.719Z,25.00
2023-05-10T05:05:23.737Z,25.00
2023-05-10T05:06:23.728Z,25.00
2023-05-10T05:07:23.703Z,25.00
2023-05-10T05:08:23.640Z,24.90
2023-05-10T05:09:23.663Z,0.00
2023-05-10T05:10:23.667Z,0.00
2023-05-10T05:11:23.680Z,42.69
2023-05-10T05:12:23.672Z,62.61
2023-05-10T05:13:23.845Z,49.99
2023-05-10T05:14:23.608Z,58.04
2023-05-10T05:15:23.644Z,82.78
2023-05-10T05:16:23.683Z,70.51
2023-05-10T05:17:23.627Z,72.67
2023-05-10T05:18:23.727Z,87.62
2023-05-10T05:19:23.725Z,113.65
2023-05-10T05:20:23.626Z,139.28
2023-05-10T05:21:23.637Z,228.16
2023-05-10T05:22:23.632Z,223.47
2023-05-10T05:23:23.611Z,258.00
2023-05-10T05:24:23.665Z,250.00
2023-05-10T05:25:23.629Z,218.79
2023-05-10T05:26:23.603Z,218.15
2023-05-10T05:27:23.682Z,234.43
2023-05-10T05:28:23.687Z,264.63
2023-05-10T05:29:23.785Z,248.49
2023-05-10T05:30:23.808Z,250.00
2023-05-10T05:31:23.947Z,249.30
2023-05-10T05:32:23.967Z,248.94
2023-05-10T05:33:24.020Z,232.57
2023-05-10T05:34:24.462Z,260.38
2023-05-10T05:35:24.108Z,306.14
2023-05-10T05:36:24.142Z,292.91
2023-05-10T05:37:24.165Z,267.34
2023-05-10T05:38:24.122Z,264.13
2023-05-10T05:39:24.374Z,271.94
2023-05-10T05:40:24.272Z,245.88
2023-05-10T05:41:24.384Z,233.53
2023-05-10T05:42:24.396Z,206.44
2023-05-10T05:43:25.391Z,214.76
2023-05-10T05:44:24.907Z,201.70
2023-05-10T05:45:25.337Z,196.95
2023-05-10T05:47:44.147Z,25.00
2023-05-10T05:48:44.115Z,25.00
2023-05-10T05:49:43.899Z,25.00
2023-05-10T05:50:43.865Z,25.00
2023-05-10T05:51:43.892Z,25.00
2023-05-10T05:52:43.851Z,29.81
2023-05-10T05:53:44.077Z,24.71
2023-05-10T05:54:43.838Z,0.00
2023-05-10T05:55:43.850Z,0.00
2023-05-10T05:56:43.870Z,0.00
2023-05-10T05:57:43.807Z,0.00
2023-05-10T05:58:43.856Z,0.00
2023-05-10T05:59:44.105Z,0.00
2023-05-10T06:00:43.793Z,0.00
2023-05-10T06:01:43.835Z,26.68
2023-05-10T06:02:43.875Z,58.44
2023-05-10T06:03:43.877Z,50.49
2023-05-10T06:04:44.910Z,83.26
2023-05-10T06:05:43.786Z,154.42
2023-05-10T06:06:43.805Z,218.85
2023-05-10T06:07:43.739Z,208.46
2023-05-10T06:08:43.734Z,190.31
2023-05-10T06:09:43.767Z,276.73
2023-05-10T06:10:43.722Z,204.45
2023-05-10T06:11:43.708Z,198.38
2023-05-10T06:12:43.704Z,191.42
2023-05-10T06:13:43.699Z,261.26
2023-05-10T06:14:43.699Z,251.70
2023-05-10T06:15:43.793Z,244.70
2023-05-10T06:16:43.754Z,211.44
2023-05-10T06:17:43.769Z,197.79
2023-05-10T06:18:43.710Z,180.81
2023-05-10T06:19:43.702Z,199.19
2023-05-10T06:20:43.693Z,209.64
2023-05-10T06:21:43.613Z,250.00
2023-05-10T06:22:44.562Z,227.82
2023-05-10T06:23:44.058Z,220.33
2023-05-10T06:24:43.636Z,195.06
2023-05-10T06:25:43.634Z,215.37
2023-05-10T06:26:43.634Z,172.63
2023-05-10T06:27:44.344Z,152.21
2023-05-10T06:28:43.611Z,168.24
2023-05-10T06:29:44.135Z,184.03
2023-05-10T06:30:43.580Z,190.25
2023-05-10T06:31:43.639Z,193.28
2023-05-10T06:32:43.608Z,194.48
2023-05-10T06:33:43.637Z,197.12
2023-05-10T06:34:43.562Z,196.19
2023-05-10T06:35:43.674Z,206.34
2023-05-10T06:36:43.524Z,230.41
2023-05-10T06:37:43.550Z,208.78
2023-05-10T06:38:43.565Z,182.02
2023-05-10T06:39:43.551Z,163.44
2023-05-10T06:40:43.761Z,175.68
2023-05-10T06:41:43.686Z,206.61
2023-05-10T06:42:43.721Z,211.27
2023-05-10T06:43:43.787Z,201.56
2023-05-10T06:44:43.856Z,188.86
2023-05-10T06:45:43.892Z,190.02
2023-05-10T06:48:03.518Z,25.00
2023-05-10T06:49:04.452Z,25.00
2023-05-10T06:50:03.410Z,25.00
2023-05-10T06:51:03.414Z,25.00
2023-05-10T06:52:03.396Z,25.00
2023-05-10T06:53:03.402Z,41.43
2023-05-10T06:54:03.417Z,76.71
2023-05-10T06:55:03.429Z,92.55
2023-05-10T06:56:04.417Z,55.18
2023-05-10T06:57:04.165Z,57.45
2023-05-10T06:58:03.419Z,30.07
2023-05-10T06:59:03.454Z,37.44
2023-05-10T07:00:03.609Z,25.00
2023-05-10T07:01:03.610Z,11.22
2023-05-10T07:02:03.668Z,53.14
2023-05-10T07:03:03.720Z,61.93
2023-05-10T07:04:04.043Z,12.28
2023-05-10T07:05:03.833Z,0.00
2023-05-10T07:06:03.904Z,0.00
2023-05-10T07:07:03.936Z,0.00
2023-05-10T07:08:03.970Z,0.00
2023-05-10T07:09:04.027Z,0.00
2023-05-10T07:10:04.088Z,0.00
2023-05-10T07:11:04.114Z,22.39
2023-05-10T07:12:04.187Z,25.00
2023-05-10T07:13:04.196Z,33.39
2023-05-10T07:14:04.209Z,36.23
2023-05-10T07:15:04.253Z,13.57
2023-05-10T07:16:04.235Z,47.67
2023-05-10T07:17:04.243Z,56.67
2023-05-10T07:18:04.489Z,13.81
2023-05-10T07:19:04.302Z,19.83
2023-05-10T07:20:04.530Z,26.02
2023-05-10T07:21:04.382Z,15.95
2023-05-10T07:22:04.424Z,0.00
2023-05-10T07:23:04.472Z,0.00
2023-05-10T07:24:04.576Z,0.00
2023-05-10T07:25:04.802Z,0.00
2023-05-10T07:26:04.662Z,29.62
2023-05-10T07:27:04.704Z,38.27
2023-05-10T07:28:04.664Z,99.95
2023-05-10T07:29:04.686Z,186.37
2023-05-10T07:30:04.776Z,192.96
2023-05-10T07:31:04.797Z,163.46
2023-05-10T07:32:04.812Z,144.06
2023-05-10T07:33:04.772Z,144.95
2023-05-10T07:34:04.809Z,27.30
2023-05-10T07:35:04.825Z,0.00
2023-05-10T07:36:04.757Z,38.01
2023-05-10T07:37:04.781Z,48.87
2023-05-10T07:38:04.783Z,73.35
2023-05-10T07:39:04.793Z,130.73
2023-05-10T07:40:04.868Z,256.84
2023-05-10T07:41:04.838Z,296.63
2023-05-10T07:42:04.911Z,216.72
2023-05-10T07:43:04.965Z,168.34
2023-05-10T07:44:05.012Z,150.65
2023-05-10T07:45:05.085Z,121.72
2023-05-10T07:46:05.213Z,73.54
2023-05-10T07:47:05.169Z,78.76
2023-05-10T07:48:05.265Z,142.77
2023-05-10T07:49:05.269Z,198.01
2023-05-10T07:50:05.537Z,92.54
2023-05-10T07:51:05.348Z,21.72
2023-05-10T07:52:05.367Z,15.34
2023-05-10T07:53:05.449Z,64.34
2023-05-10T07:54:05.566Z,113.01
2023-05-10T07:55:05.571Z,137.42
2023-05-10T07:56:05.620Z,127.09
2023-05-10T07:57:05.629Z,81.36
2023-05-10T07:58:05.685Z,56.55
2023-05-10T07:59:05.635Z,16.90
2023-05-10T08:00:05.720Z,0.00
2023-05-10T08:01:05.757Z,0.00
2023-05-10T08:02:05.854Z,11.77
2023-05-10T08:03:05.909Z,57.32
2023-05-10T08:04:05.920Z,105.01
2023-05-10T08:05:05.855Z,198.42
2023-05-10T08:06:05.912Z,194.87
2023-05-10T08:07:05.975Z,112.06
2023-05-10T08:08:06.010Z,71.55
2023-05-10T08:09:06.043Z,68.74
2023-05-10T08:10:06.077Z,101.55
2023-05-10T08:11:06.074Z,130.07
2023-05-10T08:12:06.195Z,170.05
2023-05-10T08:13:06.253Z,177.37
2023-05-10T08:14:06.234Z,199.32
2023-05-10T08:15:06.260Z,210.07
2023-05-10T08:16:06.409Z,227.64
2023-05-10T08:17:06.941Z,233.18
2023-05-10T08:18:06.511Z,234.62
2023-05-10T08:19:06.513Z,250.00
2023-05-10T08:20:06.612Z,236.59
2023-05-10T08:21:06.526Z,222.51
2023-05-10T08:22:06.577Z,258.61
2023-05-10T08:23:06.583Z,264.67
2023-05-10T08:24:06.626Z,235.88
2023-05-10T08:25:07.420Z,232.08
2023-05-10T08:26:06.811Z,232.67
2023-05-10T08:27:06.822Z,236.73
2023-05-10T08:28:06.846Z,251.08
2023-05-10T08:29:06.845Z,252.16
2023-05-10T08:30:07.143Z,265.68
2023-05-10T08:31:07.017Z,250.00
2023-05-10T08:32:06.982Z,242.82
2023-05-10T08:33:07.105Z,236.56
2023-05-10T08:34:07.062Z,202.41
2023-05-10T08:35:07.154Z,203.87
2023-05-10T08:36:07.622Z,203.20
2023-05-10T08:37:07.185Z,194.74
2023-05-10T08:38:07.262Z,193.13
2023-05-10T08:39:13.532Z,175.61
2023-05-10T08:40:08.230Z,176.57
2023-05-10T08:41:07.306Z,179.77
2023-05-10T08:42:07.229Z,183.24
2023-05-10T08:43:07.384Z,207.42
2023-05-10T08:44:07.205Z,278.02
2023-05-10T08:45:07.530Z,234.71
2023-05-10T08:46:07.825Z,219.39
2023-05-10T08:47:07.327Z,189.11
2023-05-10T08:48:07.242Z,197.25
2023-05-10T08:49:07.190Z,189.28
2023-05-10T08:50:07.207Z,170.71
2023-05-10T08:51:07.607Z,150.14
2023-05-10T08:52:07.265Z,122.86
2023-05-10T08:53:07.292Z,101.50
2023-05-10T08:54:07.302Z,90.29
2023-05-10T08:55:07.344Z,103.53
2023-05-10T08:56:07.388Z,108.11
2023-05-10T08:57:07.404Z,118.59
2023-05-10T08:58:07.367Z,95.99
2023-05-10T08:59:07.372Z,79.57
2023-05-10T09:00:07.450Z,53.89
2023-05-10T09:01:07.844Z,46.81
2023-05-10T09:02:07.473Z,78.19
2023-05-10T09:03:07.571Z,91.72
2023-05-10T09:04:07.692Z,84.39
2023-05-10T09:05:07.686Z,61.34
2023-05-10T09:06:08.125Z,71.56
2023-05-10T09:07:07.656Z,83.32
2023-05-10T09:08:07.662Z,80.77
2023-05-10T09:09:07.669Z,54.74
2023-05-10T09:10:07.716Z,47.25
2023-05-10T09:11:08.544Z,67.98
2023-05-10T09:12:08.717Z,13.84
2023-05-10T09:13:07.723Z,16.91
2023-05-10T09:14:07.651Z,25.24
2023-05-10T09:15:07.719Z,29.59
2023-05-10T09:16:20.286Z,29.89
2023-05-10T09:17:08.754Z,30.12
2023-05-10T09:18:07.743Z,30.67
2023-05-10T09:19:07.752Z,37.30
2023-05-10T09:20:07.708Z,106.60
2023-05-10T09:21:07.692Z,128.70
2023-05-10T09:22:07.685Z,64.54
2023-05-10T09:23:07.736Z,42.23
2023-05-10T09:24:07.754Z,23.31
2023-05-10T09:25:07.814Z,32.25
2023-05-10T09:26:07.856Z,46.04
2023-05-10T09:27:07.935Z,24.17
2023-05-10T09:28:07.992Z,34.16
2023-05-10T09:29:08.090Z,39.61
2023-05-10T09:30:08.064Z,43.14
2023-05-10T09:31:08.168Z,39.36
2023-05-10T09:32:08.105Z,24.04
2023-05-10T09:33:08.137Z,32.25
2023-05-10T09:34:08.205Z,32.10
2023-05-10T09:35:08.126Z,28.99
2023-05-10T09:36:08.613Z,23.09
2023-05-10T09:37:08.133Z,26.13
2023-05-10T09:38:08.162Z,43.54
2023-05-10T09:39:08.168Z,56.56
2023-05-10T09:40:08.228Z,50.17
2023-05-10T09:41:08.190Z,48.97
2023-05-10T09:42:08.223Z,43.97
2023-05-10T09:43:08.410Z,48.86
2023-05-10T09:44:08.313Z,60.66
2023-05-10T09:45:08.363Z,68.88
2023-05-10T09:46:08.387Z,80.43
2023-05-10T09:47:08.421Z,121.28
2023-05-10T09:48:08.459Z,139.33
2023-05-10T09:49:08.492Z,164.66
2023-05-10T09:50:08.506Z,173.16
2023-05-10T09:51:08.647Z,172.22
2023-05-10T09:52:08.605Z,161.22
2023-05-10T09:53:08.578Z,207.02
2023-05-10T09:54:08.633Z,208.93
2023-05-10T09:55:08.654Z,196.68
2023-05-10T09:56:08.647Z,181.10
2023-05-10T09:57:08.671Z,184.38
2023-05-10T09:58:08.714Z,200.88
2023-05-10T09:59:09.461Z,200.29
2023-05-10T10:00:08.729Z,185.58
2023-05-10T10:01:08.839Z,200.46
2023-05-10T10:02:08.718Z,195.31
2023-05-10T10:03:08.822Z,182.74
2023-05-10T10:04:08.730Z,161.77
2023-05-10T10:05:08.762Z,176.62
2023-05-10T10:06:18.840Z,179.49
2023-05-10T10:07:09.706Z,179.52
2023-05-10T10:08:08.666Z,166.57
2023-05-10T10:09:08.706Z,162.96
2023-05-10T10:10:08.733Z,156.39
2023-05-10T10:11:09.099Z,156.80
2023-05-10T10:12:08.641Z,164.01
2023-05-10T10:13:08.620Z,157.79
2023-05-10T10:14:08.704Z,119.60
2023-05-10T10:15:08.656Z,100.68
2023-05-10T10:16:08.662Z,89.05
2023-05-10T10:17:09.090Z,64.73
2023-05-10T10:18:08.658Z,89.58
2023-05-10T10:19:08.614Z,95.25
2023-05-10T10:20:10.466Z,90.97
2023-05-10T10:21:08.572Z,80.71
2023-05-10T10:22:08.621Z,92.71
2023-05-10T10:23:08.556Z,105.76
2023-05-10T10:24:08.578Z,142.77
2023-05-10T10:25:08.563Z,146.68
2023-05-10T10:26:08.644Z,157.81
2023-05-10T10:27:08.568Z,108.67
2023-05-10T10:28:08.513Z,79.25
2023-05-10T10:29:08.585Z,84.25
2023-05-10T10:30:08.587Z,49.59
2023-05-10T10:31:08.584Z,17.90
2023-05-10T10:32:08.605Z,16.93
2023-05-10T10:33:20.183Z,31.71
2023-05-10T10:34:09.534Z,32.27
2023-05-10T10:35:08.530Z,32.66
2023-05-10T10:36:08.508Z,32.74
2023-05-10T10:37:08.628Z,35.89
2023-05-10T10:38:08.532Z,46.95
2023-05-10T10:39:08.546Z,48.77
2023-05-10T10:40:08.449Z,97.11
2023-05-10T10:41:08.446Z,113.69
2023-05-10T10:42:08.637Z,133.66
2023-05-10T10:43:08.467Z,152.32
2023-05-10T10:44:08.452Z,133.45
2023-05-10T10:45:08.481Z,116.68
2023-05-10T10:46:08.440Z,126.66
2023-05-10T10:47:08.691Z,179.18
2023-05-10T10:48:08.542Z,98.22
2023-05-10T10:49:08.476Z,138.77
2023-05-10T10:50:08.552Z,142.16
2023-05-10T10:51:10.087Z,131.21
2023-05-10T10:52:08.532Z,138.73
2023-05-10T10:53:08.550Z,128.90
2023-05-10T10:54:08.619Z,136.37
2023-05-10T10:55:08.629Z,219.21
2023-05-10T10:56:08.678Z,228.05
2023-05-10T10:57:08.716Z,166.28
2023-05-10T10:58:08.642Z,183.31
2023-05-10T10:59:08.688Z,170.18
2023-05-10T11:00:08.724Z,106.09
2023-05-10T11:01:08.756Z,37.19
2023-05-10T11:02:08.812Z,0.00
2023-05-10T11:03:08.916Z,0.00
2023-05-10T11:04:08.818Z,20.93
2023-05-10T11:05:08.822Z,19.80
2023-05-10T11:06:08.892Z,34.92
2023-05-10T11:07:09.155Z,42.31
2023-05-10T11:08:08.943Z,41.80
2023-05-10T11:09:08.985Z,47.40
2023-05-10T11:10:08.949Z,59.27
2023-05-10T11:11:09.000Z,73.71
2023-05-10T11:12:09.237Z,90.18
2023-05-10T11:13:09.101Z,58.26
2023-05-10T11:14:09.145Z,57.15
2023-05-10T11:15:10.448Z,63.11
2023-05-10T11:16:09.242Z,69.35
2023-05-10T11:17:09.298Z,54.35
2023-05-10T11:18:09.343Z,56.92
2023-05-10T11:19:09.462Z,46.65
2023-05-10T11:20:09.458Z,60.11
2023-05-10T11:21:09.490Z,54.68
2023-05-10T11:22:09.613Z,48.49
2023-05-10T11:23:09.612Z,63.16
2023-05-10T11:24:09.662Z,101.15
2023-05-10T11:25:09.679Z,112.02
2023-05-10T11:26:09.860Z,109.52
2023-05-10T11:27:10.378Z,111.99
2023-05-10T11:28:09.990Z,88.60
2023-05-10T11:29:10.197Z,88.81
2023-05-10T11:30:09.953Z,89.11
2023-05-10T11:31:09.924Z,100.99
2023-05-10T11:32:10.229Z,133.23
2023-05-10T11:33:10.002Z,180.54
2023-05-10T11:34:09.890Z,295.60
2023-05-10T11:35:09.901Z,270.63
2023-05-10T11:36:09.896Z,219.83
2023-05-10T11:37:09.868Z,206.76
2023-05-10T11:38:10.151Z,199.52
2023-05-10T11:39:09.889Z,192.14
2023-05-10T11:40:09.883Z,147.52
2023-05-10T11:41:10.030Z,136.10
2023-05-10T11:42:09.901Z,131.70
2023-05-10T11:43:10.123Z,153.22
2023-05-10T11:44:09.964Z,191.40
2023-05-10T11:45:10.034Z,206.29
2023-05-10T11:46:10.056Z,179.47
2023-05-10T11:47:10.117Z,124.54
2023-05-10T11:48:10.201Z,126.40
2023-05-10T11:49:10.149Z,142.31
2023-05-10T11:50:10.159Z,154.24
2023-05-10T11:51:10.186Z,137.30
2023-05-10T11:52:10.209Z,117.19
2023-05-10T11:53:10.228Z,102.20
2023-05-10T11:54:10.292Z,96.58
2023-05-10T11:55:10.349Z,85.83
2023-05-10T11:56:10.362Z,99.36
2023-05-10T11:57:10.408Z,110.97
2023-05-10T11:58:10.493Z,97.71
2023-05-10T11:59:10.499Z,93.75
2023-05-10T12:00:10.567Z,102.23
2023-05-10T12:01:10.606Z,112.84
2023-05-10T12:02:10.695Z,112.21
2023-05-10T12:03:11.221Z,129.43
2023-05-10T12:04:11.001Z,147.88
2023-05-10T12:05:10.900Z,153.34
2023-05-10T12:06:10.932Z,157.85
2023-05-10T12:07:10.927Z,167.85
2023-05-10T12:08:11.002Z,157.45
2023-05-10T12:09:11.057Z,148.61
2023-05-10T12:10:11.138Z,130.23
2023-05-10T12:11:11.116Z,139.44
2023-05-10T12:12:11.132Z,128.18
2023-05-10T12:13:11.158Z,127.89
2023-05-10T12:14:11.162Z,142.18
2023-05-10T12:15:11.173Z,150.70
2023-05-10T12:16:11.234Z,138.13
2023-05-10T12:17:11.157Z,136.49
2023-05-10T12:18:11.273Z,133.26
2023-05-10T12:19:11.389Z,135.01
2023-05-10T12:20:11.213Z,158.70
2023-05-10T12:21:11.275Z,133.79
2023-05-10T12:22:11.246Z,140.23
2023-05-10T12:23:11.240Z,150.41
2023-05-10T12:24:11.303Z,151.69
2023-05-10T12:25:11.268Z,149.09
2023-05-10T12:26:11.355Z,168.87
2023-05-10T12:27:11.433Z,194.77
2023-05-10T12:28:11.387Z,175.33
2023-05-10T12:29:11.395Z,174.81
2023-05-10T12:30:11.472Z,216.46
2023-05-10T12:31:11.515Z,187.72
2023-05-10T12:32:11.553Z,177.42
2023-05-10T12:33:11.679Z,179.88
2023-05-10T12:34:11.613Z,177.81
2023-05-10T12:35:11.637Z,175.11
2023-05-10T12:36:11.724Z,134.85
2023-05-10T12:37:11.692Z,130.12
2023-05-10T12:38:11.753Z,130.57
2023-05-10T12:39:11.762Z,147.77
2023-05-10T12:40:11.796Z,133.10